createdAt,value
2022-12-27T00:02:17.281Z,100.00
2022-12-27T00:04:43.850Z,100.00
2022-12-27T00:07:10.571Z,100.00
2022-12-27T00:09:37.150Z,100.00
2022-12-27T00:12:04.151Z,100.00
2022-12-27T00:14:30.792Z,100.00
2022-12-27T00:16:57.380Z,100.00
2022-12-27T00:19:23.912Z,100.00
2022-12-27T00:21:50.516Z,100.00
2022-12-27T00:24:17.082Z,100.00
2022-12-27T00:26:43.690Z,100.00
2022-12-27T00:29:10.701Z,100.00
2022-12-27T00:31:37.989Z,100.00
2022-12-27T00:34:07.791Z,100.00
2022-12-27T00:36:35.331Z,100.00
2022-12-27T00:39:01.954Z,100.00
2022-12-27T00:41:28.699Z,100.00
2022-12-27T00:43:55.371Z,100.00
2022-12-27T00:46:22.196Z,100.00
2022-12-27T00:48:48.740Z,100.00
2022-12-27T00:51:21.594Z,100.00
2022-12-27T00:53:49.552Z,100.00
2022-12-27T00:56:19.552Z,100.00
2022-12-27T00:58:46.183Z,100.00
2022-12-27T01:01:16.799Z,100.00
2022-12-27T01:03:44.227Z,100.00
2022-12-27T01:06:16.990Z,100.00
2022-12-27T01:08:44.475Z,100.00
2022-12-27T01:11:11.863Z,100.00
2022-12-27T01:13:40.216Z,100.00
2022-12-27T01:16:22.288Z,100.00
2022-12-27T01:18:49.501Z,100.00
2022-12-27T01:21:19.353Z,100.00
2022-12-27T01:23:46.879Z,100.00
2022-12-27T01:26:19.605Z,100.00
2022-12-27T01:28:47.120Z,100.00
2022-12-27T01:31:17.546Z,100.00
2022-12-27T01:33:44.670Z,100.00
2022-12-27T01:36:19.835Z,100.00
2022-12-27T01:38:48.240Z,100.00
2022-12-27T01:41:37.855Z,100.00
2022-12-27T01:44:35.183Z,100.00
2022-12-27T01:47:04.480Z,100.00
2022-12-27T01:49:31.656Z,100.00
2022-12-27T01:51:58.698Z,100.00
2022-12-27T01:54:25.738Z,100.00
2022-12-27T01:56:52.466Z,100.00
2022-12-27T01:59:19.036Z,100.00
2022-12-27T02:01:48.532Z,100.00
2022-12-27T02:04:20.980Z,100.00
2022-12-27T02:06:48.195Z,100.00
2022-12-27T02:09:26.420Z,100.00
2022-12-27T02:11:56.778Z,100.00
2022-12-27T02:14:35.152Z,100.00
2022-12-27T02:17:09.764Z,100.00
2022-12-27T02:19:42.197Z,97.93
2022-12-27T02:23:12.272Z,95.54
2022-12-27T02:25:50.814Z,94.17
2022-12-27T02:28:26.394Z,93.19
2022-12-27T02:31:00.908Z,92.98
2022-12-27T02:33:32.625Z,92.47
2022-12-27T02:36:04.764Z,91.95
2022-12-27T02:38:36.175Z,93.20
2022-12-27T02:41:25.212Z,93.19
2022-12-27T02:44:13.007Z,93.72
2022-12-27T02:46:58.683Z,93.40
2022-12-27T02:49:58.067Z,93.59
2022-12-27T02:53:04.798Z,93.69
2022-12-27T02:55:42.463Z,93.84
2022-12-27T02:58:31.973Z,93.95
2022-12-27T03:01:42.364Z,93.57
2022-12-27T03:04:27.965Z,93.52
2022-12-27T03:07:33.725Z,93.81
2022-12-27T03:10:30.840Z,93.40
2022-12-27T03:13:37.175Z,93.40
2022-12-27T03:16:17.916Z,93.59
2022-12-27T03:18:55.605Z,93.60
2022-12-27T03:21:53.157Z,93.52
2022-12-27T03:24:44.225Z,93.47
2022-12-27T03:27:28.694Z,93.59
2022-12-27T03:30:16.492Z,93.95
2022-12-27T03:33:13.425Z,94.08
2022-12-27T03:36:08.670Z,93.78
2022-12-27T03:38:43.466Z,93.64
2022-12-27T03:41:33.956Z,93.86
2022-12-27T03:44:00.656Z,94.45
2022-12-27T03:46:35.892Z,94.17
2022-12-27T03:49:19.013Z,94.21
2022-12-27T03:52:00.281Z,94.36
2022-12-27T03:54:30.877Z,94.71
2022-12-27T03:57:01.084Z,94.64
2022-12-27T03:59:28.150Z,95.03
2022-12-27T04:01:55.540Z,95.35
2022-12-27T04:04:22.303Z,95.62
2022-12-27T04:06:51.700Z,95.65
2022-12-27T04:09:36.880Z,96.05
2022-12-27T04:12:22.365Z,95.96
2022-12-27T04:15:07.113Z,95.90
2022-12-27T04:17:52.540Z,96.29
2022-12-27T04:20:37.716Z,96.46
2022-12-27T04:23:23.221Z,96.44
2022-12-27T04:26:08.359Z,96.74
2022-12-27T04:28:53.167Z,97.20
2022-12-27T04:31:38.773Z,96.70
2022-12-27T04:34:23.755Z,96.41
2022-12-27T04:36:50.366Z,96.97
2022-12-27T04:39:17.251Z,97.59
2022-12-27T04:42:02.906Z,98.14
2022-12-27T04:44:48.205Z,97.37
2022-12-27T04:47:37.674Z,98.74
2022-12-27T04:50:36.204Z,98.00
2022-12-27T04:53:21.592Z,98.13
2022-12-27T04:55:48.156Z,98.79
2022-12-27T04:58:14.733Z,100.00
2022-12-27T05:01:00.109Z,100.00
2022-12-27T05:03:26.990Z,100.00
2022-12-27T05:05:53.838Z,100.00
2022-12-27T05:08:39.523Z,100.00
2022-12-27T05:11:25.460Z,100.00
2022-12-27T05:14:00.670Z,100.00
2022-12-27T05:16:35.594Z,100.00
2022-12-27T05:19:02.664Z,100.00
2022-12-27T05:21:29.226Z,100.00
2022-12-27T05:24:14.472Z,100.00
2022-12-27T05:26:41.324Z,99.76
2022-12-27T05:29:08.047Z,99.51
2022-12-27T05:31:34.834Z,99.31
2022-12-27T05:34:01.594Z,99.29
2022-12-27T05:36:28.190Z,98.92
2022-12-27T05:38:54.755Z,98.70
2022-12-27T05:41:21.359Z,98.34
2022-12-27T05:43:48.325Z,98.99
2022-12-27T05:46:20.854Z,98.78
2022-12-27T05:48:48.075Z,98.51
2022-12-27T05:51:18.184Z,98.85
2022-12-27T05:53:45.955Z,98.09
2022-12-27T05:56:18.011Z,97.84
2022-12-27T05:58:44.593Z,97.83
2022-12-27T06:01:13.912Z,98.01
2022-12-27T06:03:40.780Z,97.69
2022-12-27T06:06:08.879Z,97.52
2022-12-27T06:08:35.872Z,97.62
2022-12-27T06:11:17.250Z,97.90
2022-12-27T06:13:49.734Z,97.77
2022-12-27T06:16:17.039Z,97.67
2022-12-27T06:18:44.753Z,97.38
2022-12-27T06:21:16.693Z,97.70
2022-12-27T06:23:47.246Z,97.78
2022-12-27T06:26:23.263Z,98.15
2022-12-27T06:28:51.364Z,97.99
2022-12-27T06:31:19.413Z,97.38
2022-12-27T06:33:47.342Z,96.77
2022-12-27T06:36:17.023Z,95.98
2022-12-27T06:38:44.142Z,95.75
2022-12-27T06:41:13.365Z,95.63
2022-12-27T06:43:40.525Z,95.02
2022-12-27T06:46:17.011Z,94.97
2022-12-27T06:48:44.789Z,94.83
2022-12-27T06:51:12.870Z,94.69
2022-12-27T06:53:39.455Z,94.14
2022-12-27T06:56:07.751Z,94.12
2022-12-27T06:58:34.664Z,94.05
2022-12-27T07:01:21.039Z,94.06
2022-12-27T07:03:52.339Z,93.72
2022-12-27T07:06:20.181Z,93.64
2022-12-27T07:08:47.665Z,93.20
2022-12-27T07:11:15.410Z,93.03
2022-12-27T07:13:47.620Z,92.57
2022-12-27T07:16:17.231Z,92.42
2022-12-27T07:18:43.939Z,91.92
2022-12-27T07:21:13.938Z,91.15
2022-12-27T07:23:41.116Z,90.98
2022-12-27T07:26:10.257Z,91.41
2022-12-27T07:28:37.449Z,90.61
2022-12-27T07:31:08.527Z,89.49
2022-12-27T07:33:36.164Z,89.12
2022-12-27T07:36:03.251Z,87.18
2022-12-27T07:38:29.826Z,86.22
2022-12-27T07:41:00.034Z,85.67
2022-12-27T07:43:29.595Z,84.89
2022-12-27T07:46:02.241Z,84.53
2022-12-27T07:48:28.876Z,82.05
2022-12-27T07:50:56.086Z,81.66
2022-12-27T07:53:22.765Z,81.27
2022-12-27T07:55:50.964Z,80.15
2022-12-27T07:58:18.384Z,78.13
2022-12-27T08:00:50.737Z,76.92
2022-12-27T08:03:18.432Z,79.75
2022-12-27T08:05:49.637Z,74.19
2022-12-27T08:08:18.129Z,74.55
2022-12-27T08:10:44.785Z,72.28
2022-12-27T08:13:11.425Z,69.79
2022-12-27T08:15:40.607Z,67.37
2022-12-27T08:18:07.348Z,64.93
2022-12-27T08:20:34.080Z,67.47
2022-12-27T08:23:00.847Z,66.89
2022-12-27T08:25:28.488Z,64.78
2022-12-27T08:28:10.282Z,64.65
2022-12-27T08:30:38.189Z,61.37
2022-12-27T08:33:06.092Z,60.31
2022-12-27T08:35:52.337Z,60.01
2022-12-27T08:38:19.952Z,57.66
2022-12-27T08:40:46.770Z,57.10
2022-12-27T08:43:14.338Z,57.52
2022-12-27T08:45:40.937Z,55.99
2022-12-27T08:48:07.942Z,54.93
2022-12-27T08:50:34.915Z,56.42
2022-12-27T08:53:03.012Z,54.65
2022-12-27T08:55:31.003Z,50.62
2022-12-27T08:57:58.900Z,51.51
2022-12-27T09:00:27.064Z,47.47
2022-12-27T09:02:54.066Z,46.40
2022-12-27T09:05:22.145Z,45.43
2022-12-27T09:07:49.660Z,43.48
2022-12-27T09:10:16.971Z,42.50
2022-12-27T09:12:43.740Z,43.07
2022-12-27T09:15:10.559Z,42.93
2022-12-27T09:17:37.250Z,42.39
2022-12-27T09:20:05.123Z,42.28
2022-12-27T09:22:31.819Z,39.90
2022-12-27T09:24:58.408Z,38.26
2022-12-27T09:27:25.110Z,40.55
2022-12-27T09:29:52.040Z,36.48
2022-12-27T09:32:18.643Z,37.14
2022-12-27T09:34:45.324Z,37.15
2022-12-27T09:37:11.947Z,35.18
2022-12-27T09:39:38.485Z,35.34
2022-12-27T09:42:48.548Z,34.23
2022-12-27T09:45:37.046Z,33.39
2022-12-27T09:48:19.203Z,33.74
2022-12-27T09:50:56.779Z,32.50
2022-12-27T09:53:38.307Z,31.99
2022-12-27T09:56:06.484Z,31.09
2022-12-27T09:58:53.551Z,30.84
2022-12-27T10:01:28.074Z,30.85
2022-12-27T10:03:54.773Z,31.86
2022-12-27T10:06:39.446Z,31.62
2022-12-27T10:09:14.946Z,30.52
2022-12-27T10:12:10.779Z,31.57
2022-12-27T10:14:59.896Z,32.29
2022-12-27T10:17:53.327Z,31.25
2022-12-27T10:20:33.435Z,32.30
2022-12-27T10:23:06.606Z,30.73
2022-12-27T10:25:36.164Z,30.12
2022-12-27T10:28:14.352Z,30.91
2022-12-27T10:30:42.208Z,29.45
2022-12-27T10:33:20.918Z,30.19
2022-12-27T10:35:48.651Z,30.01
2022-12-27T10:38:15.192Z,28.85
2022-12-27T10:40:52.603Z,29.49
2022-12-27T10:43:25.439Z,30.31
2022-12-27T10:45:52.052Z,29.17
2022-12-27T10:48:24.271Z,29.67
2022-12-27T10:51:01.547Z,29.14
2022-12-27T10:53:45.105Z,29.38
2022-12-27T10:56:20.995Z,29.58
2022-12-27T10:58:56.531Z,29.71
2022-12-27T11:01:31.282Z,30.55
2022-12-27T11:04:27.717Z,29.23
2022-12-27T11:07:01.762Z,29.03
2022-12-27T11:09:33.621Z,29.11
2022-12-27T11:12:20.502Z,28.40
2022-12-27T11:15:18.677Z,29.75
2022-12-27T11:17:54.667Z,28.84
2022-12-27T11:20:29.496Z,28.51
2022-12-27T11:23:01.104Z,28.57
2022-12-27T11:25:29.276Z,27.96
2022-12-27T11:28:04.507Z,28.44
2022-12-27T11:30:34.632Z,27.55
2022-12-27T11:33:37.569Z,27.53
2022-12-27T11:36:05.334Z,28.38
2022-12-27T11:38:34.482Z,27.38
2022-12-27T11:41:16.817Z,28.08
2022-12-27T11:44:09.480Z,27.04
2022-12-27T11:47:00.760Z,26.46
2022-12-27T11:49:35.851Z,25.92
2022-12-27T11:52:23.767Z,25.91
2022-12-27T11:54:56.607Z,27.49
2022-12-27T11:57:38.047Z,27.14
2022-12-27T12:00:16.527Z,25.89
2022-12-27T12:02:49.226Z,25.75
2022-12-27T12:05:33.767Z,25.97
2022-12-27T12:08:21.891Z,27.83
2022-12-27T12:10:55.409Z,26.89
2022-12-27T12:13:46.055Z,26.66
2022-12-27T12:16:40.908Z,25.58
2022-12-27T12:19:33.713Z,25.64
2022-12-27T12:22:30.078Z,25.75
2022-12-27T12:25:02.412Z,25.81
2022-12-27T12:27:47.465Z,26.08
2022-12-27T12:30:33.502Z,26.36
2022-12-27T12:33:26.990Z,26.27
2022-12-27T12:36:08.391Z,25.82
2022-12-27T12:39:11.173Z,26.50
2022-12-27T12:42:04.579Z,25.39
2022-12-27T12:44:56.005Z,25.45
2022-12-27T12:48:10.394Z,26.16
2022-12-27T12:51:01.300Z,26.82
2022-12-27T12:53:33.923Z,25.61
2022-12-27T12:56:44.844Z,25.15
2022-12-27T12:59:43.919Z,25.79
2022-12-27T13:02:28.520Z,26.25
2022-12-27T13:05:14.802Z,25.77
2022-12-27T13:07:50.608Z,26.36
2022-12-27T13:10:39.032Z,27.59
2022-12-27T13:13:39.709Z,27.48
2022-12-27T13:16:32.652Z,26.49
2022-12-27T13:19:26.576Z,27.25
2022-12-27T13:22:08.528Z,27.11
2022-12-27T13:24:57.120Z,26.21
2022-12-27T13:27:49.976Z,26.47
2022-12-27T13:30:28.793Z,26.55
2022-12-27T13:33:31.525Z,25.31
2022-12-27T13:36:09.991Z,26.77
2022-12-27T13:39:01.323Z,27.84
2022-12-27T13:42:13.404Z,27.83
2022-12-27T13:45:09.456Z,28.37
2022-12-27T13:47:39.027Z,28.33
2022-12-27T13:50:30.596Z,27.63
2022-12-27T13:53:37.508Z,27.99
2022-12-27T13:59:44.255Z,27.76
2022-12-27T14:02:50.664Z,28.13
2022-12-27T14:05:37.531Z,28.34
2022-12-27T14:08:13.309Z,28.29
2022-12-27T14:10:45.557Z,28.71
2022-12-27T14:13:15.680Z,28.43
2022-12-27T14:16:07.034Z,28.90
2022-12-27T14:19:03.111Z,28.92
2022-12-27T14:22:00.451Z,28.58
2022-12-27T14:24:42.190Z,29.73
2022-12-27T14:27:53.534Z,29.32
2022-12-27T14:30:51.920Z,30.10
2022-12-27T14:33:33.772Z,31.24
2022-12-27T14:36:44.266Z,30.74
2022-12-27T14:39:40.933Z,31.10
2022-12-27T14:42:44.588Z,31.34
2022-12-27T14:45:55.414Z,32.85
2022-12-27T14:48:47.931Z,33.11
2022-12-27T14:52:01.809Z,35.23
2022-12-27T14:54:40.063Z,35.58
2022-12-27T14:57:33.549Z,35.29
2022-12-27T15:00:04.382Z,35.80
2022-12-27T15:02:47.913Z,36.55
2022-12-27T15:05:23.556Z,37.14
2022-12-27T15:08:08.822Z,37.64
2022-12-27T15:10:47.589Z,38.20
2022-12-27T15:13:14.100Z,39.02
2022-12-27T15:15:43.352Z,38.71
2022-12-27T15:18:28.292Z,40.28
2022-12-27T15:21:02.166Z,40.38
2022-12-27T15:23:28.663Z,40.27
2022-12-27T15:26:03.468Z,40.59
2022-12-27T15:28:40.130Z,39.78
2022-12-27T15:31:21.184Z,41.95
2022-12-27T15:34:24.342Z,41.47
2022-12-27T15:36:51.482Z,41.41
2022-12-27T15:39:32.993Z,41.51
2022-12-27T15:42:03.590Z,42.09
2022-12-27T15:44:59.503Z,42.92
2022-12-27T15:47:31.816Z,43.28
2022-12-27T15:50:21.389Z,42.96
2022-12-27T15:53:01.133Z,43.35
2022-12-27T15:56:06.401Z,43.62
2022-12-27T15:58:33.508Z,43.56
2022-12-27T16:01:25.934Z,46.88
2022-12-27T16:03:54.121Z,47.18
2022-12-27T16:06:36.070Z,45.21
2022-12-27T16:09:36.876Z,46.12
2022-12-27T16:12:11.158Z,46.13
2022-12-27T16:14:41.089Z,46.27
2022-12-27T16:17:13.503Z,47.58
2022-12-27T16:19:53.973Z,48.31
2022-12-27T16:22:54.796Z,48.45
2022-12-27T16:25:30.632Z,49.04
2022-12-27T16:28:24.875Z,51.35
2022-12-27T16:30:56.690Z,49.40
2022-12-27T16:33:26.014Z,48.01
2022-12-27T16:36:29.991Z,50.25
2022-12-27T16:39:18.316Z,50.75
2022-12-27T16:41:54.034Z,50.78
2022-12-27T16:44:28.152Z,50.49
2022-12-27T16:47:04.697Z,52.88
2022-12-27T16:49:51.436Z,51.50
2022-12-27T16:52:53.026Z,51.25
2022-12-27T16:55:57.167Z,52.61
2022-12-27T16:58:36.529Z,52.13
2022-12-27T17:01:27.310Z,52.00
2022-12-27T17:03:55.811Z,51.94
2022-12-27T17:06:42.348Z,52.53
2022-12-27T17:09:08.998Z,53.51
2022-12-27T17:11:50.596Z,52.12
2022-12-27T17:14:26.006Z,52.38
2022-12-27T17:17:03.559Z,52.30
2022-12-27T17:19:52.449Z,52.08
2022-12-27T17:22:20.849Z,52.88
2022-12-27T17:24:48.888Z,53.05
2022-12-27T17:27:39.534Z,53.80
2022-12-27T17:30:41.557Z,53.67
2022-12-27T17:33:39.973Z,53.68
2022-12-27T17:36:15.475Z,53.61
2022-12-27T17:39:04.911Z,53.15
2022-12-27T17:42:17.912Z,52.85
2022-12-27T17:45:07.672Z,53.42
2022-12-27T17:47:43.175Z,53.30
2022-12-27T17:50:20.961Z,54.51
2022-12-27T17:53:27.838Z,53.71
2022-12-27T17:56:40.649Z,54.37
2022-12-27T17:59:23.352Z,54.24
2022-12-27T18:01:53.902Z,54.97
2022-12-27T18:04:30.801Z,55.35
2022-12-27T18:07:10.174Z,54.54
2022-12-27T18:09:46.161Z,55.41
2022-12-27T18:12:18.861Z,54.82
2022-12-27T18:14:58.940Z,55.70
2022-12-27T18:17:32.628Z,55.91
2022-12-27T18:19:59.191Z,55.87
2022-12-27T18:22:26.975Z,55.80
2022-12-27T18:24:53.523Z,56.71
2022-12-27T18:27:24.946Z,59.13
2022-12-27T18:29:52.063Z,57.46
2022-12-27T18:32:19.411Z,57.20
2022-12-27T18:34:57.660Z,59.92
2022-12-27T18:37:25.932Z,59.63
2022-12-27T18:40:02.418Z,58.97
2022-12-27T18:42:41.098Z,58.19
2022-12-27T18:45:29.834Z,59.23
2022-12-27T18:48:02.340Z,59.95
2022-12-27T18:50:32.206Z,60.32
2022-12-27T18:53:07.239Z,59.48
2022-12-27T18:55:34.476Z,58.86
2022-12-27T18:58:07.893Z,59.95
2022-12-27T19:00:59.042Z,61.12
2022-12-27T19:03:27.312Z,61.38
2022-12-27T19:06:10.970Z,60.69
2022-12-27T19:08:53.170Z,61.70
2022-12-27T19:11:29.310Z,61.14
2022-12-27T19:14:00.562Z,59.36
2022-12-27T19:16:29.430Z,60.74
2022-12-27T19:19:07.769Z,61.24
2022-12-27T19:21:37.625Z,62.17
2022-12-27T19:24:29.392Z,61.55
2022-12-27T19:27:01.376Z,61.69
2022-12-27T19:29:32.625Z,63.53
2022-12-27T19:32:07.372Z,62.73
2022-12-27T19:34:45.276Z,62.72
2022-12-27T19:37:12.896Z,63.00
2022-12-27T19:39:41.049Z,62.58
2022-12-27T19:42:14.942Z,62.88
2022-12-27T19:44:41.537Z,63.30
2022-12-27T19:47:12.955Z,64.32
2022-12-27T19:49:42.678Z,64.38
2022-12-27T19:52:22.811Z,64.23
2022-12-27T19:54:52.658Z,64.22
2022-12-27T19:57:19.848Z,64.87
2022-12-27T19:59:46.457Z,64.86
2022-12-27T20:02:13.623Z,66.02
2022-12-27T20:04:40.469Z,64.92
2022-12-27T20:07:07.145Z,65.56
2022-12-27T20:09:33.738Z,65.39
2022-12-27T20:12:00.364Z,64.34
2022-12-27T20:14:26.982Z,64.73
2022-12-27T20:16:53.620Z,65.29
2022-12-27T20:19:20.362Z,66.21
2022-12-27T20:21:47.565Z,67.69
2022-12-27T20:24:14.818Z,68.00
2022-12-27T20:26:42.487Z,68.13
2022-12-27T20:29:09.583Z,67.61
2022-12-27T20:31:43.796Z,67.48
2022-12-27T20:34:12.102Z,67.88
2022-12-27T20:36:38.708Z,68.80
2022-12-27T20:39:07.178Z,68.69
2022-12-27T20:41:34.545Z,68.38
2022-12-27T20:44:01.317Z,68.79
2022-12-27T20:46:28.295Z,69.01
2022-12-27T20:48:56.365Z,68.78
2022-12-27T20:51:27.710Z,68.87
2022-12-27T20:53:56.158Z,69.03
2022-12-27T20:56:23.225Z,68.13
2022-12-27T20:58:49.968Z,70.52
2022-12-27T21:01:19.998Z,71.29
2022-12-27T21:03:46.967Z,71.08
2022-12-27T21:06:22.234Z,70.81
2022-12-27T21:08:56.200Z,70.60
2022-12-27T21:11:27.136Z,70.91
2022-12-27T21:13:54.616Z,70.95
2022-12-27T21:16:27.026Z,71.52
2022-12-27T21:18:54.842Z,71.40
2022-12-27T21:21:27.637Z,71.58
2022-12-27T21:23:55.683Z,72.12
2022-12-27T21:26:25.701Z,72.25
2022-12-27T21:28:53.058Z,71.98
2022-12-27T21:31:20.538Z,72.41
2022-12-27T21:33:47.831Z,72.05
2022-12-27T21:36:17.045Z,72.36
2022-12-27T21:38:44.231Z,72.70
2022-12-27T21:41:21.161Z,73.54
2022-12-27T21:43:49.196Z,73.51
2022-12-27T21:46:24.053Z,73.62
2022-12-27T21:49:01.893Z,73.19
2022-12-27T21:51:29.799Z,73.06
2022-12-27T21:53:57.032Z,73.96
2022-12-27T21:56:24.817Z,74.00
2022-12-27T21:58:52.039Z,74.40
2022-12-27T22:01:21.076Z,75.11
2022-12-27T22:03:49.848Z,75.00
2022-12-27T22:06:31.584Z,74.69
2022-12-27T22:09:01.696Z,74.54
2022-12-27T22:11:30.034Z,74.30
2022-12-27T22:13:56.614Z,75.23
2022-12-27T22:16:26.071Z,74.95
2022-12-27T22:18:55.926Z,74.83
2022-12-27T22:21:26.000Z,75.05
2022-12-27T22:23:54.396Z,74.46
2022-12-27T22:26:23.694Z,75.17
2022-12-27T22:28:50.882Z,75.35
2022-12-27T22:31:23.119Z,75.53
2022-12-27T22:33:50.683Z,75.27
2022-12-27T22:36:23.131Z,75.85
2022-12-27T22:38:50.753Z,75.65
2022-12-27T22:41:20.639Z,75.88
2022-12-27T22:44:02.162Z,76.79
2022-12-27T22:46:51.026Z,76.51
2022-12-27T22:49:17.127Z,77.22
2022-12-27T22:51:43.726Z,76.41
2022-12-27T22:54:10.370Z,76.37
2022-12-27T22:56:39.774Z,76.86
2022-12-27T22:59:12.216Z,76.76
2022-12-27T23:01:40.360Z,76.31
2022-12-27T23:04:08.566Z,77.43
2022-12-27T23:06:36.164Z,76.77
2022-12-27T23:09:03.809Z,76.15
2022-12-27T23:11:36.592Z,76.27
2022-12-27T23:14:06.793Z,76.65
2022-12-27T23:16:38.218Z,77.85
2022-12-27T23:19:05.470Z,77.36
2022-12-27T23:21:32.095Z,77.31
2022-12-27T23:23:58.789Z,77.43
2022-12-27T23:26:25.694Z,77.90
2022-12-27T23:28:52.992Z,78.05
2022-12-27T23:31:22.396Z,78.15
2022-12-27T23:33:49.256Z,78.23
2022-12-27T23:36:16.235Z,78.26
2022-12-27T23:38:43.745Z,78.50
2022-12-27T23:41:22.261Z,78.03
2022-12-27T23:43:52.616Z,78.39
2022-12-27T23:46:33.875Z,79.10
2022-12-27T23:49:03.407Z,80.20
2022-12-27T23:51:31.326Z,80.70
2022-12-27T23:53:58.624Z,79.92
2022-12-27T23:56:27.651Z,79.92
2022-12-27T23:58:55.600Z,80.48
